sensor_id;sensor_type;location;lat;lon;timestamp;pressure;altitude;pressure_sealevel;temperature;humidity
31585;BME280;18191;51.288;12.390;2023-04-08T00:04:35;48925.28;;;-144.47;88.24
31585;BME280;18191;51.288;12.390;2023-04-08T00:09:25;48955.13;;;-144.47;88.38
31585;BME280;18191;51.288;12.390;2023-04-08T00:14:16;48933.25;;;-144.47;89.19
31585;BME280;18191;51.288;12.390;2023-04-08T00:19:06;48917.34;;;-144.47;90.30
31585;BME280;18191;51.288;12.390;2023-04-08T00:23:56;48953.13;;;-144.47;90.60
31585;BME280;18191;51.288;12.390;2023-04-08T00:28:46;48949.16;;;-144.47;87.63
31585;BME280;18191;51.288;12.390;2023-04-08T00:33:36;48905.41;;;-144.47;88.43
31585;BME280;18191;51.288;12.390;2023-04-08T00:38:27;48953.13;;;-144.47;86.64
31585;BME280;18191;51.288;12.390;2023-04-08T00:43:17;48971.03;;;-144.47;86.91
31585;BME280;18191;51.288;12.390;2023-04-08T00:48:09;48925.28;;;-144.47;89.30
31585;BME280;18191;51.288;12.390;2023-04-08T00:53:00;48913.34;;;-144.47;87.88
31585;BME280;18191;51.288;12.390;2023-04-08T00:57:50;48981.00;;;-144.47;87.09
31585;BME280;18191;51.288;12.390;2023-04-08T01:02:43;48885.50;;;-144.47;85.26
31585;BME280;18191;51.288;12.390;2023-04-08T01:07:36;48933.25;;;-144.47;85.45
31585;BME280;18191;51.288;12.390;2023-04-08T01:12:27;48957.13;;;-144.47;87.54
31585;BME280;18191;51.288;12.390;2023-04-08T01:17:18;48949.16;;;-144.47;88.62
31585;BME280;18191;51.288;12.390;2023-04-08T01:22:33;48937.22;;;-144.47;88.42
31585;BME280;18191;51.288;12.390;2023-04-08T01:27:24;48935.25;;;-144.47;89.16
31585;BME280;18191;51.288;12.390;2023-04-08T01:32:15;48925.28;;;-144.47;86.46
31585;BME280;18191;51.288;12.390;2023-04-08T01:37:06;48941.19;;;-144.47;85.66
31585;BME280;18191;51.288;12.390;2023-04-08T01:41:56;48961.09;;;-144.47;87.66
31585;BME280;18191;51.288;12.390;2023-04-08T01:46:48;48881.53;;;-144.47;89.36
31585;BME280;18191;51.288;12.390;2023-04-08T01:51:39;48937.22;;;-144.47;88.70
31585;BME280;18191;51.288;12.390;2023-04-08T01:56:30;48909.38;;;-144.47;89.14
31585;BME280;18191;51.288;12.390;2023-04-08T02:01:22;48945.19;;;-144.47;88.80
31585;BME280;18191;51.288;12.390;2023-04-08T02:06:14;48981.00;;;-144.47;86.69
31585;BME280;18191;51.288;12.390;2023-04-08T02:11:04;48931.25;;;-144.47;86.09
31585;BME280;18191;51.288;12.390;2023-04-08T02:15:56;48945.19;;;-144.47;86.34
31585;BME280;18191;51.288;12.390;2023-04-08T02:20:53;48969.06;;;-144.47;88.01
31585;BME280;18191;51.288;12.390;2023-04-08T02:25:46;48957.13;;;-144.47;89.79
31585;BME280;18191;51.288;12.390;2023-04-08T02:30:36;48921.31;;;-144.47;90.62
31585;BME280;18191;51.288;12.390;2023-04-08T02:35:30;48990.94;;;-144.47;91.02
31585;BME280;18191;51.288;12.390;2023-04-08T02:45:13;48905.41;;;-144.47;91.34
31585;BME280;18191;51.288;12.390;2023-04-08T02:50:04;48931.25;;;-144.47;89.74
31585;BME280;18191;51.288;12.390;2023-04-08T02:54:54;48961.09;;;-144.47;90.16
31585;BME280;18191;51.288;12.390;2023-04-08T02:59:44;48949.16;;;-144.47;88.50
31585;BME280;18191;51.288;12.390;2023-04-08T03:04:35;48957.13;;;-144.47;90.03
31585;BME280;18191;51.288;12.390;2023-04-08T03:09:25;48933.25;;;-144.47;89.05
31585;BME280;18191;51.288;12.390;2023-04-08T03:14:15;48977.00;;;-144.47;88.27
31585;BME280;18191;51.288;12.390;2023-04-08T03:19:06;48909.38;;;-144.47;89.31
31585;BME280;18191;51.288;12.390;2023-04-08T03:23:57;48955.13;;;-144.47;91.29
31585;BME280;18191;51.288;12.390;2023-04-08T03:28:47;49008.84;;;-144.47;91.92
31585;BME280;18191;51.288;12.390;2023-04-08T03:33:37;48977.00;;;-144.47;94.12
31585;BME280;18191;51.288;12.390;2023-04-08T03:38:27;48929.28;;;-144.47;94.67
31585;BME280;18191;51.288;12.390;2023-04-08T03:43:18;48959.09;;;-144.47;93.35
31585;BME280;18191;51.288;12.390;2023-04-08T03:48:10;48941.19;;;-144.47;92.34
31585;BME280;18191;51.288;12.390;2023-04-08T03:53:01;48961.09;;;-144.47;93.21
31585;BME280;18191;51.288;12.390;2023-04-08T03:57:51;48992.94;;;-144.47;93.59
31585;BME280;18191;51.288;12.390;2023-04-08T04:02:41;48959.09;;;-144.47;94.94
31585;BME280;18191;51.288;12.390;2023-04-08T04:07:31;48955.13;;;-144.47;95.44
31585;BME280;18191;51.288;12.390;2023-04-08T04:12:22;48971.03;;;-144.47;95.34
31585;BME280;18191;51.288;12.390;2023-04-08T04:17:12;48951.16;;;-144.47;92.18
31585;BME280;18191;51.288;12.390;2023-04-08T04:22:02;48965.06;;;-144.47;95.14
31585;BME280;18191;51.288;12.390;2023-04-08T04:26:52;48929.28;;;-144.47;95.05
31585;BME280;18191;51.288;12.390;2023-04-08T04:31:42;48975.03;;;-144.47;95.17
31585;BME280;18191;51.288;12.390;2023-04-08T04:36:33;48935.25;;;-144.47;95.02
31585;BME280;18191;51.288;12.390;2023-04-08T04:41:23;48913.34;;;-144.47;94.82
31585;BME280;18191;51.288;12.390;2023-04-08T04:46:13;48921.31;;;-144.47;94.77
31585;BME280;18191;51.288;12.390;2023-04-08T04:51:03;48921.31;;;-144.47;93.47
31585;BME280;18191;51.288;12.390;2023-04-08T04:55:53;48984.97;;;-144.47;92.24
31585;BME280;18191;51.288;12.390;2023-04-08T05:00:44;48925.28;;;-144.47;93.90
31585;BME280;18191;51.288;12.390;2023-04-08T05:05:35;48961.09;;;-144.47;93.20
31585;BME280;18191;51.288;12.390;2023-04-08T05:10:25;48977.00;;;-144.47;92.30
31585;BME280;18191;51.288;12.390;2023-04-08T05:15:17;48897.44;;;-144.47;93.13
31585;BME280;18191;51.288;12.390;2023-04-08T05:20:07;48957.13;;;-144.47;93.88
31585;BME280;18191;51.288;12.390;2023-04-08T05:24:57;48933.25;;;-144.47;92.18
31585;BME280;18191;51.288;12.390;2023-04-08T05:29:47;48923.31;;;-144.47;90.88
31585;BME280;18191;51.288;12.390;2023-04-08T05:34:38;48945.19;;;-144.47;93.51
31585;BME280;18191;51.288;12.390;2023-04-08T05:39:29;48933.25;;;-144.47;94.24
31585;BME280;18191;51.288;12.390;2023-04-08T05:44:21;48933.25;;;-144.47;93.04
31585;BME280;18191;51.288;12.390;2023-04-08T05:49:11;48929.28;;;-144.47;92.08
31585;BME280;18191;51.288;12.390;2023-04-08T05:54:01;48969.06;;;-144.47;93.65
31585;BME280;18191;51.288;12.390;2023-04-08T05:58:51;48953.13;;;-144.47;92.05
31585;BME280;18191;51.288;12.390;2023-04-08T06:03:41;48933.25;;;-144.47;91.98
31585;BME280;18191;51.288;12.390;2023-04-08T06:08:32;48961.09;;;-144.47;92.65
31585;BME280;18191;51.288;12.390;2023-04-08T06:13:22;48929.28;;;-144.47;94.19
31585;BME280;18191;51.288;12.390;2023-04-08T06:18:15;48931.25;;;-144.47;94.87
31585;BME280;18191;51.288;12.390;2023-04-08T06:23:05;48913.34;;;-144.47;93.93
31585;BME280;18191;51.288;12.390;2023-04-08T06:27:55;48933.25;;;-144.47;95.61
31585;BME280;18191;51.288;12.390;2023-04-08T06:32:46;48917.34;;;-144.47;93.04
31585;BME280;18191;51.288;12.390;2023-04-08T06:37:36;48951.16;;;-144.47;94.66
31585;BME280;18191;51.288;12.390;2023-04-08T06:42:27;48923.31;;;-144.47;94.73
31585;BME280;18191;51.288;12.390;2023-04-08T06:47:17;48941.19;;;-144.47;95.61
31585;BME280;18191;51.288;12.390;2023-04-08T06:52:07;48973.03;;;-144.47;95.18
31585;BME280;18191;51.288;12.390;2023-04-08T06:56:58;48953.13;;;-144.47;95.90
31585;BME280;18191;51.288;12.390;2023-04-08T07:01:48;48945.19;;;-144.47;95.88
31585;BME280;18191;51.288;12.390;2023-04-08T07:06:38;48933.25;;;-144.47;94.56
31585;BME280;18191;51.288;12.390;2023-04-08T07:11:28;48925.28;;;-144.47;96.49
31585;BME280;18191;51.288;12.390;2023-04-08T07:16:18;48953.13;;;-144.47;95.80
31585;BME280;18191;51.288;12.390;2023-04-08T07:21:08;48981.00;;;-144.47;94.87
31585;BME280;18191;51.288;12.390;2023-04-08T07:26:03;48977.00;;;-144.47;96.45
31585;BME280;18191;51.288;12.390;2023-04-08T07:31:06;48969.06;;;-144.47;94.81
31585;BME280;18191;51.288;12.390;2023-04-08T07:35:57;48990.94;;;-144.47;95.11
31585;BME280;18191;51.288;12.390;2023-04-08T07:40:47;48977.00;;;-144.47;94.85
31585;BME280;18191;51.288;12.390;2023-04-08T07:45:37;48953.13;;;-144.47;93.68
31585;BME280;18191;51.288;12.390;2023-04-08T07:50:27;48961.09;;;-144.47;93.58
31585;BME280;18191;51.288;12.390;2023-04-08T07:55:17;48951.16;;;-144.47;91.72
31585;BME280;18191;51.288;12.390;2023-04-08T08:00:08;48965.06;;;-144.47;91.31
31585;BME280;18191;51.288;12.390;2023-04-08T08:04:59;48955.13;;;-144.47;89.05
31585;BME280;18191;51.288;12.390;2023-04-08T08:09:49;48981.00;;;-144.47;87.63
31585;BME280;18191;51.288;12.390;2023-04-08T08:14:40;48929.28;;;-144.47;85.74
31585;BME280;18191;51.288;12.390;2023-04-08T08:19:30;48925.28;;;-144.47;85.16
31585;BME280;18191;51.288;12.390;2023-04-08T08:24:20;48953.13;;;-144.47;82.77
31585;BME280;18191;51.288;12.390;2023-04-08T08:29:10;48969.06;;;-144.47;83.79
31585;BME280;18191;51.288;12.390;2023-04-08T08:34:02;48925.28;;;-144.47;83.52
31585;BME280;18191;51.288;12.390;2023-04-08T08:38:52;48977.00;;;-144.47;84.13
31585;BME280;18191;51.288;12.390;2023-04-08T08:43:43;48939.22;;;-144.47;81.69
31585;BME280;18191;51.288;12.390;2023-04-08T08:48:34;48937.22;;;-144.47;81.27
31585;BME280;18191;51.288;12.390;2023-04-08T08:53:30;48941.19;;;-144.47;81.80
31585;BME280;18191;51.288;12.390;2023-04-08T08:58:20;48953.13;;;-144.47;81.11
31585;BME280;18191;51.288;12.390;2023-04-08T09:08:04;48913.34;;;-144.47;78.28
31585;BME280;18191;51.288;12.390;2023-04-08T09:12:55;48933.25;;;-144.47;76.33
31585;BME280;18191;51.288;12.390;2023-04-08T09:17:45;48961.09;;;-144.47;75.90
31585;BME280;18191;51.288;12.390;2023-04-08T09:22:53;48897.44;;;-144.47;73.43
31585;BME280;18191;51.288;12.390;2023-04-08T09:27:44;48945.19;;;-144.47;76.32
31585;BME280;18191;51.288;12.390;2023-04-08T09:32:45;48915.34;;;-144.47;77.11
31585;BME280;18191;51.288;12.390;2023-04-08T09:37:36;48891.47;;;-144.47;74.63
31585;BME280;18191;51.288;12.390;2023-04-08T09:42:26;48925.28;;;-144.47;72.02
31585;BME280;18191;51.288;12.390;2023-04-08T09:47:21;48913.34;;;-144.47;71.24
31585;BME280;18191;51.288;12.390;2023-04-08T09:52:21;48939.22;;;-144.47;74.29
31585;BME280;18191;51.288;12.390;2023-04-08T09:57:15;48941.19;;;-144.47;72.42
31585;BME280;18191;51.288;12.390;2023-04-08T10:02:07;48921.31;;;-144.47;73.46
31585;BME280;18191;51.288;12.390;2023-04-08T10:07:00;48941.19;;;-144.47;72.86
31585;BME280;18191;51.288;12.390;2023-04-08T10:11:52;48945.19;;;-144.47;71.80
31585;BME280;18191;51.288;12.390;2023-04-08T10:16:42;48929.28;;;-144.47;73.43
31585;BME280;18191;51.288;12.390;2023-04-08T10:21:37;48909.38;;;-144.47;75.04
31585;BME280;18191;51.288;12.390;2023-04-08T10:26:31;48953.13;;;-144.47;74.38
31585;BME280;18191;51.288;12.390;2023-04-08T10:31:22;48925.28;;;-144.47;74.37
31585;BME280;18191;51.288;12.390;2023-04-08T10:36:12;48955.13;;;-144.47;76.08
31585;BME280;18191;51.288;12.390;2023-04-08T10:41:04;48959.09;;;-144.47;74.69
31585;BME280;18191;51.288;12.390;2023-04-08T10:45:54;48905.41;;;-144.47;74.17
31585;BME280;18191;51.288;12.390;2023-04-08T10:50:57;48939.22;;;-144.47;71.27
31585;BME280;18191;51.288;12.390;2023-04-08T10:55:49;48935.25;;;-144.47;70.93
31585;BME280;18191;51.288;12.390;2023-04-08T11:00:40;48929.28;;;-144.47;68.99
31585;BME280;18191;51.288;12.390;2023-04-08T11:05:31;48933.25;;;-144.47;68.86
31585;BME280;18191;51.288;12.390;2023-04-08T11:10:21;48885.50;;;-144.47;68.93
31585;BME280;18191;51.288;12.390;2023-04-08T11:15:12;48957.13;;;-144.47;67.98
31585;BME280;18191;51.288;12.390;2023-04-08T11:20:02;48919.31;;;-144.47;70.91
31585;BME280;18191;51.288;12.390;2023-04-08T11:24:55;48935.25;;;-144.47;69.70
31585;BME280;18191;51.288;12.390;2023-04-08T11:29:45;48917.34;;;-144.47;68.01
31585;BME280;18191;51.288;12.390;2023-04-08T11:34:38;48901.41;;;-144.47;67.39
31585;BME280;18191;51.288;12.390;2023-04-08T11:39:28;48941.19;;;-144.47;67.93
31585;BME280;18191;51.288;12.390;2023-04-08T11:44:28;48901.41;;;-144.47;66.33
31585;BME280;18191;51.288;12.390;2023-04-08T11:49:18;48941.19;;;-144.47;63.97
31585;BME280;18191;51.288;12.390;2023-04-08T11:54:24;48861.63;;;-144.47;63.53
31585;BME280;18191;51.288;12.390;2023-04-08T11:59:15;48905.41;;;-144.47;59.46
31585;BME280;18191;51.288;12.390;2023-04-08T12:04:05;48909.38;;;-144.47;57.41
31585;BME280;18191;51.288;12.390;2023-04-08T12:08:59;48881.53;;;-144.47;56.80
31585;BME280;18191;51.288;12.390;2023-04-08T12:13:49;48887.50;;;-144.47;59.10
31585;BME280;18191;51.288;12.390;2023-04-08T12:18:39;48913.34;;;-144.47;58.55
31585;BME280;18191;51.288;12.390;2023-04-08T12:23:30;48893.47;;;-144.47;57.91
31585;BME280;18191;51.288;12.390;2023-04-08T12:28:21;48893.47;;;-144.47;58.79
31585;BME280;18191;51.288;12.390;2023-04-08T12:33:11;48909.38;;;-144.47;58.41
31585;BME280;18191;51.288;12.390;2023-04-08T12:38:01;48909.38;;;-144.47;58.39
31585;BME280;18191;51.288;12.390;2023-04-08T12:42:51;48893.47;;;-144.47;58.72
31585;BME280;18191;51.288;12.390;2023-04-08T12:47:42;48885.50;;;-144.47;58.63
31585;BME280;18191;51.288;12.390;2023-04-08T12:52:32;48939.22;;;-144.47;58.77
31585;BME280;18191;51.288;12.390;2023-04-08T12:57:22;48909.38;;;-144.47;60.03
31585;BME280;18191;51.288;12.390;2023-04-08T13:02:12;48889.50;;;-144.47;61.20
31585;BME280;18191;51.288;12.390;2023-04-08T13:07:02;48909.38;;;-144.47;59.55
31585;BME280;18191;51.288;12.390;2023-04-08T13:11:53;48917.34;;;-144.47;59.10
31585;BME280;18191;51.288;12.390;2023-04-08T13:16:45;48895.44;;;-144.47;58.75
31585;BME280;18191;51.288;12.390;2023-04-08T13:21:35;48909.38;;;-144.47;58.06
31585;BME280;18191;51.288;12.390;2023-04-08T13:26:25;48917.34;;;-144.47;57.90
31585;BME280;18191;51.288;12.390;2023-04-08T13:31:16;48941.19;;;-144.47;58.11
31585;BME280;18191;51.288;12.390;2023-04-08T13:36:06;48907.38;;;-144.47;57.75
31585;BME280;18191;51.288;12.390;2023-04-08T13:40:56;48893.47;;;-144.47;58.19
31585;BME280;18191;51.288;12.390;2023-04-08T13:45:46;48921.31;;;-144.47;57.21
31585;BME280;18191;51.288;12.390;2023-04-08T13:50:37;48901.41;;;-144.47;56.16
31585;BME280;18191;51.288;12.390;2023-04-08T13:55:29;48901.41;;;-144.47;57.01
31585;BME280;18191;51.288;12.390;2023-04-08T14:00:19;48865.63;;;-144.47;54.80
31585;BME280;18191;51.288;12.390;2023-04-08T14:05:09;48861.63;;;-144.47;55.22
31585;BME280;18191;51.288;12.390;2023-04-08T14:10:00;48897.44;;;-144.47;58.54
31585;BME280;18191;51.288;12.390;2023-04-08T14:14:50;48913.34;;;-144.47;57.80
31585;BME280;18191;51.288;12.390;2023-04-08T14:19:40;48901.41;;;-144.47;56.91
31585;BME280;18191;51.288;12.390;2023-04-08T14:24:31;48923.31;;;-144.47;57.89
31585;BME280;18191;51.288;12.390;2023-04-08T14:29:21;48905.41;;;-144.47;57.87
31585;BME280;18191;51.288;12.390;2023-04-08T14:34:11;48913.34;;;-144.47;58.97
31585;BME280;18191;51.288;12.390;2023-04-08T14:39:01;48925.28;;;-144.47;59.80
31585;BME280;18191;51.288;12.390;2023-04-08T14:43:52;48901.41;;;-144.47;59.97
31585;BME280;18191;51.288;12.390;2023-04-08T14:48:42;48867.59;;;-144.47;59.78
31585;BME280;18191;51.288;12.390;2023-04-08T14:53:32;48935.25;;;-144.47;58.23
31585;BME280;18191;51.288;12.390;2023-04-08T14:58:22;48903.41;;;-144.47;59.30
31585;BME280;18191;51.288;12.390;2023-04-08T15:03:13;48893.47;;;-144.47;59.72
31585;BME280;18191;51.288;12.390;2023-04-08T15:08:03;48895.44;;;-144.47;58.05
31585;BME280;18191;51.288;12.390;2023-04-08T15:12:54;48921.31;;;-144.47;59.00
31585;BME280;18191;51.288;12.390;2023-04-08T15:17:44;48921.31;;;-144.47;59.16
31585;BME280;18191;51.288;12.390;2023-04-08T15:22:34;48893.47;;;-144.47;59.86
31585;BME280;18191;51.288;12.390;2023-04-08T15:27:24;48891.47;;;-144.47;58.84
31585;BME280;18191;51.288;12.390;2023-04-08T15:32:15;48905.41;;;-144.47;57.21
31585;BME280;18191;51.288;12.390;2023-04-08T15:37:05;48913.34;;;-144.47;56.00
31585;BME280;18191;51.288;12.390;2023-04-08T15:41:55;48909.38;;;-144.47;55.66
31585;BME280;18191;51.288;12.390;2023-04-08T15:46:46;48925.28;;;-144.47;55.87
31585;BME280;18191;51.288;12.390;2023-04-08T15:51:36;48889.50;;;-144.47;56.11
31585;BME280;18191;51.288;12.390;2023-04-08T15:56:27;48899.44;;;-144.47;56.43
31585;BME280;18191;51.288;12.390;2023-04-08T16:01:18;48933.25;;;-144.47;54.14
31585;BME280;18191;51.288;12.390;2023-04-08T16:06:09;48893.47;;;-144.47;55.68
31585;BME280;18191;51.288;12.390;2023-04-08T16:11:00;48885.50;;;-144.47;56.39
31585;BME280;18191;51.288;12.390;2023-04-08T16:15:53;48937.22;;;-144.47;57.10
31585;BME280;18191;51.288;12.390;2023-04-08T16:20:43;48895.44;;;-144.47;57.23
31585;BME280;18191;51.288;12.390;2023-04-08T16:25:33;48905.41;;;-144.47;58.08
31585;BME280;18191;51.288;12.390;2023-04-08T16:30:24;48909.38;;;-144.47;56.55
31585;BME280;18191;51.288;12.390;2023-04-08T16:35:14;48881.53;;;-144.47;58.11
31585;BME280;18191;51.288;12.390;2023-04-08T16:40:06;48933.25;;;-144.47;58.79
31585;BME280;18191;51.288;12.390;2023-04-08T16:44:56;48925.28;;;-144.47;59.11
31585;BME280;18191;51.288;12.390;2023-04-08T16:49:46;48925.28;;;-144.47;59.17
31585;BME280;18191;51.288;12.390;2023-04-08T16:54:37;48915.34;;;-144.47;59.16
31585;BME280;18191;51.288;12.390;2023-04-08T16:59:27;48921.31;;;-144.47;59.52
31585;BME280;18191;51.288;12.390;2023-04-08T17:04:18;48937.22;;;-144.47;60.40
31585;BME280;18191;51.288;12.390;2023-04-08T17:09:08;48901.41;;;-144.47;59.51
31585;BME280;18191;51.288;12.390;2023-04-08T17:13:59;48945.19;;;-144.47;60.07
31585;BME280;18191;51.288;12.390;2023-04-08T17:18:49;48929.28;;;-144.47;61.10
31585;BME280;18191;51.288;12.390;2023-04-08T17:23:40;48971.03;;;-144.47;60.92
31585;BME280;18191;51.288;12.390;2023-04-08T17:28:30;48949.16;;;-144.47;61.64
31585;BME280;18191;51.288;12.390;2023-04-08T17:33:21;48961.09;;;-144.47;61.39
31585;BME280;18191;51.288;12.390;2023-04-08T17:38:11;48929.28;;;-144.47;62.50
31585;BME280;18191;51.288;12.390;2023-04-08T17:43:02;48929.28;;;-144.47;62.99
31585;BME280;18191;51.288;12.390;2023-04-08T17:47:52;48933.25;;;-144.47;63.71
31585;BME280;18191;51.288;12.390;2023-04-08T17:52:43;48925.28;;;-144.47;63.10
31585;BME280;18191;51.288;12.390;2023-04-08T17:57:35;48937.22;;;-144.47;64.18
31585;BME280;18191;51.288;12.390;2023-04-08T18:02:25;48949.16;;;-144.47;64.38
31585;BME280;18191;51.288;12.390;2023-04-08T18:07:17;48909.38;;;-144.47;65.51
31585;BME280;18191;51.288;12.390;2023-04-08T18:12:07;48921.31;;;-144.47;66.07
31585;BME280;18191;51.288;12.390;2023-04-08T18:16:57;48929.28;;;-144.47;66.80
31585;BME280;18191;51.288;12.390;2023-04-08T18:21:48;48957.13;;;-144.47;67.13
31585;BME280;18191;51.288;12.390;2023-04-08T18:26:38;48931.25;;;-144.47;66.58
31585;BME280;18191;51.288;12.390;2023-04-08T18:31:28;48905.41;;;-144.47;65.61
31585;BME280;18191;51.288;12.390;2023-04-08T18:36:18;48945.19;;;-144.47;68.32
31585;BME280;18191;51.288;12.390;2023-04-08T18:41:09;48929.28;;;-144.47;68.52
31585;BME280;18191;51.288;12.390;2023-04-08T18:45:59;48953.13;;;-144.47;67.56
31585;BME280;18191;51.288;12.390;2023-04-08T18:50:49;48949.16;;;-144.47;67.59
31585;BME280;18191;51.288;12.390;2023-04-08T18:55:39;48943.19;;;-144.47;66.86
31585;BME280;18191;51.288;12.390;2023-04-08T19:00:30;48921.31;;;-144.47;67.17
31585;BME280;18191;51.288;12.390;2023-04-08T19:05:21;48877.56;;;-144.47;67.34
31585;BME280;18191;51.288;12.390;2023-04-08T19:10:11;48945.19;;;-144.47;67.39
31585;BME280;18191;51.288;12.390;2023-04-08T19:15:01;48929.28;;;-144.47;66.57
31585;BME280;18191;51.288;12.390;2023-04-08T19:19:53;48945.19;;;-144.47;67.54
31585;BME280;18191;51.288;12.390;2023-04-08T19:24:43;48961.09;;;-144.47;68.24
31585;BME280;18191;51.288;12.390;2023-04-08T19:29:33;48969.06;;;-144.47;67.69
31585;BME280;18191;51.288;12.390;2023-04-08T19:34:24;48911.38;;;-144.47;68.33
31585;BME280;18191;51.288;12.390;2023-04-08T19:39:14;48965.06;;;-144.47;69.05
31585;BME280;18191;51.288;12.390;2023-04-08T19:44:05;48897.44;;;-144.47;68.46
31585;BME280;18191;51.288;12.390;2023-04-08T19:48:55;48975.03;;;-144.47;68.89
31585;BME280;18191;51.288;12.390;2023-04-08T19:53:47;48969.06;;;-144.47;69.48
31585;BME280;18191;51.288;12.390;2023-04-08T19:58:39;48949.16;;;-144.47;69.08
31585;BME280;18191;51.288;12.390;2023-04-08T20:03:30;48957.13;;;-144.47;69.34
31585;BME280;18191;51.288;12.390;2023-04-08T20:08:20;48961.09;;;-144.47;69.44
31585;BME280;18191;51.288;12.390;2023-04-08T20:13:10;48975.03;;;-144.47;70.21
31585;BME280;18191;51.288;12.390;2023-04-08T20:18:00;48921.31;;;-144.47;70.04
31585;BME280;18191;51.288;12.390;2023-04-08T20:22:51;48957.13;;;-144.47;70.18
31585;BME280;18191;51.288;12.390;2023-04-08T20:27:41;48941.19;;;-144.47;70.12
31585;BME280;18191;51.288;12.390;2023-04-08T20:32:31;48969.06;;;-144.47;70.15
31585;BME280;18191;51.288;12.390;2023-04-08T20:37:22;48927.28;;;-144.47;70.01
31585;BME280;18191;51.288;12.390;2023-04-08T20:42:12;48941.19;;;-144.47;70.17
31585;BME280;18191;51.288;12.390;2023-04-08T20:47:02;48909.38;;;-144.47;69.90
31585;BME280;18191;51.288;12.390;2023-04-08T20:51:53;48949.16;;;-144.47;70.74
31585;BME280;18191;51.288;12.390;2023-04-08T20:56:43;48947.16;;;-144.47;70.00
31585;BME280;18191;51.288;12.390;2023-04-08T21:01:33;48933.25;;;-144.47;69.36
31585;BME280;18191;51.288;12.390;2023-04-08T21:06:24;48969.06;;;-144.47;69.21
31585;BME280;18191;51.288;12.390;2023-04-08T21:11:16;48925.28;;;-144.47;69.87
31585;BME280;18191;51.288;12.390;2023-04-08T21:16:06;48917.34;;;-144.47;70.47
31585;BME280;18191;51.288;12.390;2023-04-08T21:20:57;48969.06;;;-144.47;70.61
31585;BME280;18191;51.288;12.390;2023-04-08T21:25:47;48981.00;;;-144.47;69.45
31585;BME280;18191;51.288;12.390;2023-04-08T21:30:37;48973.03;;;-144.47;71.59
31585;BME280;18191;51.288;12.390;2023-04-08T21:35:27;48984.97;;;-144.47;72.13
31585;BME280;18191;51.288;12.390;2023-04-08T21:40:17;48965.06;;;-144.47;73.33
31585;BME280;18191;51.288;12.390;2023-04-08T21:45:08;48949.16;;;-144.47;73.99
31585;BME280;18191;51.288;12.390;2023-04-08T21:49:58;48957.13;;;-144.47;75.05
31585;BME280;18191;51.288;12.390;2023-04-08T21:54:48;48979.00;;;-144.47;75.24
31585;BME280;18191;51.288;12.390;2023-04-08T21:59:41;48945.19;;;-144.47;77.14
31585;BME280;18191;51.288;12.390;2023-04-08T22:04:31;48961.09;;;-144.47;77.84
31585;BME280;18191;51.288;12.390;2023-04-08T22:09:22;48979.00;;;-144.47;78.54
31585;BME280;18191;51.288;12.390;2023-04-08T22:14:12;48965.06;;;-144.47;78.61
31585;BME280;18191;51.288;12.390;2023-04-08T22:19:02;49000.88;;;-144.47;79.37
31585;BME280;18191;51.288;12.390;2023-04-08T22:23:53;48984.97;;;-144.47;79.94
31585;BME280;18191;51.288;12.390;2023-04-08T22:28:43;48937.22;;;-144.47;80.16
31585;BME280;18191;51.288;12.390;2023-04-08T22:33:33;48986.97;;;-144.47;80.11
31585;BME280;18191;51.288;12.390;2023-04-08T22:38:23;48961.09;;;-144.47;80.19
31585;BME280;18191;51.288;12.390;2023-04-08T22:43:13;48957.13;;;-144.47;81.15
31585;BME280;18191;51.288;12.390;2023-04-08T22:48:03;48996.91;;;-144.47;80.82
31585;BME280;18191;51.288;12.390;2023-04-08T22:52:54;48986.97;;;-144.47;81.41
31585;BME280;18191;51.288;12.390;2023-04-08T22:57:44;48979.00;;;-144.47;81.30
31585;BME280;18191;51.288;12.390;2023-04-08T23:02:34;48963.09;;;-144.47;82.86
31585;BME280;18191;51.288;12.390;2023-04-08T23:07:26;48945.19;;;-144.47;82.92
31585;BME280;18191;51.288;12.390;2023-04-08T23:12:16;48957.13;;;-144.47;82.64
31585;BME280;18191;51.288;12.390;2023-04-08T23:17:06;48943.19;;;-144.47;83.15
31585;BME280;18191;51.288;12.390;2023-04-08T23:21:56;48990.94;;;-144.47;83.51
31585;BME280;18191;51.288;12.390;2023-04-08T23:26:47;48965.06;;;-144.47;83.30
31585;BME280;18191;51.288;12.390;2023-04-08T23:31:37;48961.09;;;-144.47;83.65
31585;BME280;18191;51.288;12.390;2023-04-08T23:36:29;48949.16;;;-144.47;84.58
31585;BME280;18191;51.288;12.390;2023-04-08T23:41:20;48967.06;;;-144.47;84.59
31585;BME280;18191;51.288;12.390;2023-04-08T23:46:10;48988.94;;;-144.47;85.03
31585;BME280;18191;51.288;12.390;2023-04-08T23:51:00;49008.84;;;-144.47;84.96
31585;BME280;18191;51.288;12.390;2023-04-08T23:55:50;48959.09;;;-144.47;85.11
